Time;durP1;ratioP1;P1;durP2;ratioP2;P2;SDS_P1;SDS_P2;PMS_P1;PMS_P2;Temp;Humidity;BMP_temperature;BMP_pressure;BME280_temperature;BME280_humidity;BME280_pressure;Samples;Min_cycle;Max_cycle;Signal;HPM_P1;HPM_P2
2022/08/30 06:07:10;;;;;;;;;6.25;6.25;;;;;20.56;51.52;101557.53;2471900;23;46115;-80
2022/08/30 06:08:21;;;;;;;;;7.50;5.50;;;;;20.58;51.82;101549.41;2412051;28;45398;-81
2022/08/30 06:09:31;;;;;;;;;6.00;6.00;;;;;20.58;51.94;101552.06;2411154;28;45588;-80
2022/08/30 06:10:42;;;;;;;;;7.50;7.25;;;;;20.61;52.01;101554.56;2411958;28;46286;-79
2022/08/30 06:11:52;;;;;;;;;9.00;7.00;;;;;20.63;52.06;101558.00;2409697;28;45252;-78
2022/08/30 06:13:03;;;;;;;;;11.25;8.50;;;;;20.65;51.59;101557.88;2410386;28;46223;-79
2022/08/30 06:14:14;;;;;;;;;10.75;7.25;;;;;20.64;51.67;101550.84;2403008;28;45667;-80
2022/08/30 06:15:24;;;;;;;;;9.75;8.25;;;;;20.66;51.57;101552.47;2410762;28;45482;-80
2022/08/30 06:16:37;;;;;;;;;8.00;6.50;;;;;20.67;51.26;101548.81;2411733;28;45265;-80
2022/08/30 06:17:48;;;;;;;;;9.25;7.75;;;;;20.67;51.90;101551.47;2411075;28;45239;-80
2022/08/30 06:18:58;;;;;;;;;5.50;5.25;;;;;20.70;51.56;101550.44;2411839;28;45323;-80
2022/08/30 06:20:09;;;;;;;;;7.75;7.75;;;;;20.70;51.63;101547.75;2410724;28;47503;-80
2022/08/30 06:21:26;;;;;;;;;7.00;5.25;;;;;20.72;51.67;101553.03;2410861;28;45434;-80
2022/08/30 06:22:37;;;;;;;;;10.50;8.00;;;;;20.70;51.55;101553.09;2411383;28;45507;-80
2022/08/30 06:23:48;;;;;;;;;11.25;8.75;;;;;20.69;51.75;101554.09;2411683;28;45308;-80
2022/08/30 06:24:58;;;;;;;;;9.50;6.50;;;;;20.67;51.51;101545.28;2411473;28;45505;-80
2022/08/30 06:26:09;;;;;;;;;9.50;7.00;;;;;20.69;51.24;101552.25;2411793;28;45432;-80
2022/08/30 06:27:19;;;;;;;;;7.00;6.25;;;;;20.68;51.01;101552.34;2411543;28;45386;-80
2022/08/30 06:28:31;;;;;;;;;11.00;7.75;;;;;20.66;51.32;101555.13;2410665;28;46940;-80
2022/08/30 06:29:41;;;;;;;;;8.25;6.75;;;;;20.68;51.36;101547.88;2411978;28;45466;-80
2022/08/30 06:30:52;;;;;;;;;7.75;5.50;;;;;20.71;50.98;101557.50;2411786;28;45357;-80
2022/08/30 06:32:02;;;;;;;;;8.75;7.25;;;;;20.70;51.27;101553.09;2412103;28;45448;-80
2022/08/30 06:33:13;;;;;;;;;5.75;5.50;;;;;20.72;51.21;101553.03;2410674;28;45478;-80
2022/08/30 06:34:23;;;;;;;;;6.25;5.75;;;;;20.72;51.41;101553.88;2411682;28;45513;-80
2022/08/30 06:35:34;;;;;;;;;7.75;6.75;;;;;20.75;51.50;101552.81;2412424;28;45138;-80
2022/08/30 06:36:44;;;;;;;;;9.25;7.25;;;;;20.74;51.08;101545.78;2411430;28;45673;-80
2022/08/30 06:37:55;;;;;;;;;8.75;8.00;;;;;20.75;51.22;101548.34;2412226;28;45232;-80
2022/08/30 06:39:06;;;;;;;;;7.25;6.50;;;;;20.77;51.37;101550.91;2411910;28;46446;-80
2022/08/30 06:40:19;;;;;;;;;3.00;3.00;;;;;20.77;50.70;101548.22;2412243;28;44627;-80
2022/08/30 06:41:31;;;;;;;;;7.75;7.25;;;;;20.77;51.24;101551.75;2411859;28;45543;-79
2022/08/30 06:42:42;;;;;;;;;7.50;6.50;;;;;20.78;51.33;101553.50;2412109;28;45311;-79
2022/08/30 06:43:54;;;;;;;;;8.75;7.00;;;;;20.79;51.09;101557.84;2420992;28;47881;-80
2022/08/30 06:45:05;;;;;;;;;8.50;7.00;;;;;20.81;51.00;101563.13;2417921;28;44870;-80
2022/08/30 06:46:21;;;;;;;;;6.50;5.75;;;;;20.85;51.41;101561.97;2411566;28;46655;-80
2022/08/30 06:47:31;;;;;;;;;12.75;9.25;;;;;20.85;50.26;101564.63;2411906;28;45461;-83
2022/08/30 06:48:42;;;;;;;;;8.25;6.00;;;;;20.83;50.66;101563.88;2420993;28;47389;-82
2022/08/30 06:49:52;;;;;;;;;7.75;6.75;;;;;20.85;50.72;101559.28;2419653;28;45439;-80
2022/08/30 06:51:03;;;;;;;;;12.25;10.00;;;;;20.85;50.22;101564.63;2411735;28;47157;-81
2022/08/30 06:52:13;;;;;;;;;9.00;7.50;;;;;20.86;50.65;101565.50;2412209;28;45353;-80
2022/08/30 06:53:25;;;;;;;;;6.25;5.75;;;;;20.87;50.62;101565.38;2412924;28;45321;-80
2022/08/30 06:54:35;;;;;;;;;13.25;8.25;;;;;20.86;50.29;101569.03;2413644;28;45289;-80
2022/08/30 06:55:54;;;;;;;;;8.75;8.00;;;;;20.90;50.63;101569.69;2412760;28;46561;-80
2022/08/30 06:57:05;;;;;;;;;8.50;7.00;;;;;20.91;50.47;101571.41;2413493;28;45164;-80
2022/08/30 06:58:15;;;;;;;;;8.00;7.25;;;;;20.92;50.38;101575.78;2413727;28;45479;-80
2022/08/30 06:59:26;;;;;;;;;12.25;8.25;;;;;20.91;50.10;101572.25;2413764;28;45272;-80
2022/08/30 07:00:36;;;;;;;;;6.00;6.00;;;;;20.92;50.32;101573.09;2413738;28;45239;-79
2022/08/30 07:01:46;;;;;;;;;11.00;7.75;;;;;20.93;50.06;101569.50;2413337;28;45257;-79
2022/08/30 07:02:57;;;;;;;;;9.00;6.75;;;;;20.94;50.21;101578.38;2411473;28;45235;-80
2022/08/30 07:04:08;;;;;;;;;10.00;8.25;;;;;20.94;50.78;101573.84;2414047;28;44628;-80
2022/08/30 07:05:21;;;;;;;;;9.00;8.00;;;;;20.96;49.97;101580.00;2422366;28;46962;-80
2022/08/30 07:06:32;;;;;;;;;7.00;7.00;;;;;20.99;50.48;101581.59;2419233;28;45307;-80
2022/08/30 07:07:42;;;;;;;;;10.50;9.00;;;;;21.02;50.55;101589.44;2413378;28;45388;-80
2022/08/30 07:08:53;;;;;;;;;8.25;7.50;;;;;21.04;50.30;101584.00;2415634;28;45312;-80
2022/08/30 07:10:05;;;;;;;;;10.25;9.75;;;;;21.07;50.42;101584.66;2413326;28;46276;-80
2022/08/30 07:11:28;;;;;;;;;7.50;6.00;;;;;21.08;50.31;101586.38;2413700;28;45402;-80
2022/08/30 07:12:39;;;;;;;;;8.25;8.25;;;;;21.11;50.40;101588.00;2413069;28;45527;-80
2022/08/30 07:13:50;;;;;;;;;9.25;7.00;;;;;21.13;50.54;101588.75;2412865;28;45465;-80
2022/08/30 07:15:03;;;;;;;;;8.75;7.50;;;;;21.16;49.90;101593.03;2413285;28;45119;-80
2022/08/30 07:16:14;;;;;;;;;8.25;7.25;;;;;21.16;49.74;101583.22;2412836;28;45286;-80
2022/08/30 07:18:54;;;;;;;;;7.75;7.75;;;;;21.20;49.97;101598.09;2413000;28;45303;-80
2022/08/30 07:20:05;;;;;;;;;7.75;5.25;;;;;21.19;50.08;101590.16;2412839;28;45342;-79
2022/08/30 07:21:19;;;;;;;;;10.00;8.25;;;;;21.20;49.87;101595.41;2412751;28;45201;-80
2022/08/30 07:22:32;;;;;;;;;6.00;6.00;;;;;21.22;50.17;101592.63;2413677;28;45431;-79
2022/08/30 07:23:42;;;;;;;;;9.75;6.25;;;;;21.22;49.70;101590.81;2412869;28;45256;-80
2022/08/30 07:24:53;;;;;;;;;8.25;8.25;;;;;21.22;49.93;101590.81;2422301;28;48397;-79
2022/08/30 07:26:06;;;;;;;;;12.25;8.50;;;;;21.25;49.91;101592.44;2411478;28;45166;-80
2022/08/30 07:27:17;;;;;;;;;9.25;8.25;;;;;21.26;49.26;101591.47;2413125;28;45589;-80
2022/08/30 07:28:27;;;;;;;;;12.25;9.25;;;;;21.27;49.82;101587.84;2413595;28;45198;-79
2022/08/30 07:29:37;;;;;;;;;10.50;8.00;;;;;21.27;49.36;101589.66;2413334;28;45237;-79
2022/08/30 07:30:47;;;;;;;;;10.75;9.50;;;;;21.27;49.39;101592.31;2413442;28;45303;-79
2022/08/30 07:31:58;;;;;;;;;7.25;6.00;;;;;21.26;49.44;101599.47;2413300;28;46553;-79
2022/08/30 07:33:08;;;;;;;;;8.25;7.75;;;;;21.25;49.01;101592.44;2422335;28;45428;-79
2022/08/30 07:34:19;;;;;;;;;9.00;9.00;;;;;21.27;49.25;101595.88;2412104;28;47060;-79
2022/08/30 07:35:30;;;;;;;;;13.75;10.75;;;;;21.25;49.16;101592.44;2413003;28;44650;-79
2022/08/30 07:36:40;;;;;;;;;2.00;1.75;;;;;21.24;49.79;101596.91;2420841;28;47158;-79
2022/08/30 07:37:51;;;;;;;;;13.25;10.00;;;;;21.22;49.15;101597.97;2420060;28;45269;-79
2022/08/30 07:39:03;;;;;;;;;9.50;9.00;;;;;21.20;48.90;101591.88;2422149;28;47989;-79
2022/08/30 07:40:13;;;;;;;;;8.00;8.00;;;;;21.17;48.99;101589.41;2419614;28;44718;-79
2022/08/30 07:41:27;;;;;;;;;11.75;9.50;;;;;21.18;48.94;101591.13;2411733;28;47000;-79
2022/08/30 07:42:39;;;;;;;;;8.50;7.25;;;;;21.15;49.24;101594.84;2413035;28;45435;-79
2022/08/30 07:43:51;;;;;;;;;11.75;10.00;;;;;21.15;49.37;101592.19;2413371;28;46215;-79
2022/08/30 07:45:02;;;;;;;;;12.00;8.00;;;;;21.14;49.24;101583.28;2413548;28;45170;-79
2022/08/30 07:46:12;;;;;;;;;11.25;9.00;;;;;21.14;49.08;101585.97;2412898;28;46683;-78
2022/08/30 07:47:22;;;;;;;;;12.75;8.50;;;;;21.12;49.17;101587.88;2413087;28;44832;-78
2022/08/30 07:48:34;;;;;;;;;11.50;8.00;;;;;21.12;49.69;101587.88;2421964;28;46936;-80
2022/08/30 07:49:45;;;;;;;;;9.25;7.25;;;;;21.11;49.27;101585.31;2418704;28;44817;-79
2022/08/30 07:50:55;;;;;;;;;9.50;8.25;;;;;21.13;49.47;101594.09;2406246;28;45391;-80
2022/08/30 07:52:05;;;;;;;;;7.50;7.00;;;;;21.16;49.41;101595.72;2411120;28;44647;-79
2022/08/30 07:53:16;;;;;;;;;6.25;6.25;;;;;21.16;49.08;101599.25;2410994;28;45249;-80
2022/08/30 07:54:26;;;;;;;;;11.50;8.25;;;;;21.16;49.07;101593.91;2412231;28;45316;-79
2022/08/30 07:55:37;;;;;;;;;8.50;8.50;;;;;21.16;49.28;101598.38;2412007;28;46548;-79
2022/08/30 07:56:47;;;;;;;;;10.00;8.50;;;;;21.17;49.26;101600.09;2413098;28;45173;-80
2022/08/30 07:57:58;;;;;;;;;10.00;8.00;;;;;21.19;49.08;101595.50;2411654;28;46462;-80
2022/08/30 07:59:08;;;;;;;;;10.00;8.75;;;;;21.21;49.30;101596.28;2412360;28;45457;-79
2022/08/30 08:00:19;;;;;;;;;9.00;6.75;;;;;21.22;48.79;101600.66;2411348;28;47809;-80
2022/08/30 08:01:30;;;;;;;;;11.00;9.25;;;;;21.22;48.70;101597.97;2412179;28;45647;-79
2022/08/30 08:02:41;;;;;;;;;12.00;8.00;;;;;21.22;49.07;101601.50;2421695;28;48301;-79
2022/08/30 08:03:51;;;;;;;;;13.50;11.00;;;;;21.22;49.13;101609.53;2412084;28;45355;-79
2022/08/30 08:05:04;;;;;;;;;10.50;9.00;;;;;21.24;49.22;101609.41;2412453;28;46555;-80
2022/08/30 08:06:15;;;;;;;;;7.75;7.75;;;;;21.24;49.51;101601.41;2412105;28;44698;-80
2022/08/30 08:07:26;;;;;;;;;9.50;8.00;;;;;21.25;49.12;101603.13;2404911;28;45536;-80
2022/08/30 08:08:38;;;;;;;;;11.75;10.50;;;;;21.28;48.95;101605.63;2406291;28;44869;-80
2022/08/30 08:09:48;;;;;;;;;9.00;6.25;;;;;21.29;49.33;101604.63;2405595;28;46091;-80
2022/08/30 08:11:06;;;;;;;;;10.25;7.75;;;;;21.32;49.27;101598.22;2411851;28;45484;-80
2022/08/30 08:12:17;;;;;;;;;10.25;8.25;;;;;21.34;49.22;101602.53;2411982;28;45722;-79
2022/08/30 08:13:27;;;;;;;;;9.25;9.25;;;;;21.35;49.51;101596.22;2408756;28;45174;-80
2022/08/30 08:14:40;;;;;;;;;7.00;7.00;;;;;21.36;48.86;101600.59;2412501;28;46133;-79
2022/08/30 08:15:50;;;;;;;;;11.25;9.50;;;;;21.39;48.84;101606.69;2412462;28;45346;-79
2022/08/30 08:17:01;;;;;;;;;8.00;8.00;;;;;21.39;48.99;101602.22;2409372;28;46354;-80
2022/08/30 08:18:12;;;;;;;;;9.50;7.25;;;;;21.38;49.26;101608.53;2413107;28;45288;-80
2022/08/30 08:19:22;;;;;;;;;12.50;8.75;;;;;21.40;48.83;101613.78;2412889;28;45597;-79
2022/08/30 08:20:34;;;;;;;;;9.50;7.25;;;;;21.40;48.85;101605.75;2411474;28;45366;-79
2022/08/30 08:21:44;;;;;;;;;11.00;9.00;;;;;21.40;49.05;101611.09;2408716;28;45571;-79
2022/08/30 08:22:55;;;;;;;;;11.25;10.00;;;;;21.42;49.04;101614.53;2406892;28;45172;-80
2022/08/30 08:24:06;;;;;;;;;9.00;7.25;;;;;21.44;49.59;101602.78;2406298;28;45386;-80
2022/08/30 08:25:17;;;;;;;;;8.25;8.25;;;;;21.49;49.03;101615.84;2407593;28;45540;-80
2022/08/30 08:26:27;;;;;;;;;10.50;7.50;;;;;21.55;49.38;101625.28;2398125;28;47099;-80
2022/08/30 08:27:38;;;;;;;;;11.50;11.50;;;;;21.58;49.13;101623.25;2404324;28;45545;-80
2022/08/30 08:28:48;;;;;;;;;9.75;9.50;;;;;21.61;49.16;101619.50;2409534;28;45416;-80
2022/08/30 08:29:59;;;;;;;;;11.25;9.50;;;;;21.66;49.48;101621.88;2411374;28;45256;-79
2022/08/30 08:31:16;;;;;;;;;13.50;9.75;;;;;21.69;49.28;101624.38;2411222;28;46390;-80
2022/08/30 08:32:27;;;;;;;;;14.75;12.00;;;;;21.72;48.64;101623.31;2409087;28;45233;-80
2022/08/30 08:33:37;;;;;;;;;11.25;10.75;;;;;21.73;48.80;101627.69;2410145;28;46278;-79
2022/08/30 08:34:47;;;;;;;;;10.00;8.25;;;;;21.73;48.53;101631.22;2411260;28;45219;-80
2022/08/30 08:35:58;;;;;;;;;10.00;9.00;;;;;21.72;48.46;101629.50;2412203;28;45326;-80
2022/08/30 08:37:08;;;;;;;;;10.50;8.50;;;;;21.71;49.12;101627.78;2411346;28;45246;-80
2022/08/30 08:38:18;;;;;;;;;9.25;6.00;;;;;21.74;49.14;101624.91;2404441;28;46927;-80
2022/08/30 08:39:29;;;;;;;;;10.00;8.50;;;;;21.76;48.72;101625.66;2411693;28;44741;-80
2022/08/30 08:41:01;;;;;;;;;9.00;8.00;;;;;21.83;49.17;101630.63;2411305;28;46985;-80
2022/08/30 08:42:17;;;;;;;;;12.25;10.25;;;;;21.87;49.13;101635.69;2411300;28;45422;-80
2022/08/30 08:43:32;;;;;;;;;14.75;11.00;;;;;21.90;49.21;101626.59;2411534;28;45297;-80
2022/08/30 08:44:58;;;;;;;;;13.00;9.75;;;;;21.94;48.40;101629.91;2411689;28;44820;-80
2022/08/30 08:46:31;;;;;;;;;10.75;10.75;;;;;21.97;48.65;101630.56;2406170;28;46572;-81
2022/08/30 08:48:02;;;;;;;;;11.25;9.50;;;;;21.99;49.18;101634.00;2411025;28;45430;-80
2022/08/30 08:49:13;;;;;;;;;10.00;9.50;;;;;22.03;48.73;101645.34;2410507;28;45526;-80
2022/08/30 08:50:24;;;;;;;;;12.00;8.00;;;;;22.06;48.61;101644.28;2411757;28;45412;-80
2022/08/30 08:53:35;;;;;;;;;8.00;6.50;;;;;22.09;48.32;101652.09;2407097;28;45238;-79
2022/08/30 08:54:51;;;;;;;;;10.25;8.75;;;;;22.12;48.05;101654.59;2403386;28;45339;-79
2022/08/30 08:56:11;;;;;;;;;10.75;10.75;;;;;22.15;47.80;101654.34;2411637;28;45285;-79
2022/08/30 08:57:21;;;;;;;;;12.00;11.00;;;;;22.18;47.81;101664.84;2406076;28;47516;-79
2022/08/30 08:58:48;;;;;;;;;10.00;9.50;;;;;22.17;48.03;101660.47;2413916;28;45349;-79
2022/08/30 08:59:58;;;;;;;;;10.75;8.25;;;;;22.20;48.67;101662.09;2416264;28;45758;-79
2022/08/30 09:01:12;;;;;;;;;9.25;8.00;;;;;22.21;48.16;101658.44;2413658;28;45522;-79
2022/08/30 09:02:24;;;;;;;;;12.50;10.75;;;;;22.25;48.14;101651.91;2415499;28;46370;-79
2022/08/30 09:03:34;;;;;;;;;10.25;10.25;;;;;22.29;47.96;101657.91;2413683;28;45325;-79
2022/08/30 09:04:45;;;;;;;;;11.25;10.00;;;;;22.32;48.29;101658.53;2417839;28;45180;-80
2022/08/30 09:05:57;;;;;;;;;13.75;11.75;;;;;22.36;47.69;101662.75;2411948;28;45268;-80
2022/08/30 09:07:21;;;;;;;;;14.25;9.00;;;;;22.40;47.81;101659.88;2410842;28;45554;-80
2022/08/30 09:08:32;;;;;;;;;10.25;8.75;;;;;22.41;48.13;101658.88;2411036;28;45479;-81
2022/08/30 09:09:42;;;;;;;;;9.75;9.50;;;;;22.43;47.97;101660.50;2404699;28;47756;-81
2022/08/30 09:10:57;;;;;;;;;10.75;9.25;;;;;22.44;47.39;101659.53;2405023;28;45353;-81
2022/08/30 09:12:12;;;;;;;;;10.50;9.25;;;;;22.49;48.04;101662.72;2405653;28;47761;-80
2022/08/30 09:13:24;;;;;;;;;9.75;8.00;;;;;22.52;47.53;101661.66;2410905;28;45495;-81
2022/08/30 09:14:46;;;;;;;;;15.50;10.00;;;;;22.57;47.50;101653.34;2410534;28;46222;-81
2022/08/30 09:15:57;;;;;;;;;13.50;9.50;;;;;22.59;47.76;101654.91;2410119;28;45710;-81
2022/08/30 09:17:15;;;;;;;;;12.00;10.75;;;;;22.64;47.79;101653.75;2409701;28;47882;-80
2022/08/30 09:18:44;;;;;;;;;14.00;12.75;;;;;22.73;47.69;101660.31;2412316;28;45380;-80
2022/08/30 09:19:55;;;;;;;;;9.00;8.00;;;;;22.76;47.41;101649.38;2411983;28;45600;-80
2022/08/30 09:21:07;;;;;;;;;11.00;7.75;;;;;22.82;47.13;101656.97;2412660;28;44717;-80
2022/08/30 09:22:32;;;;;;;;;11.75;9.25;;;;;22.86;47.87;101655.81;2410516;28;47082;-81
2022/08/30 09:23:55;;;;;;;;;6.00;5.50;;;;;22.91;47.12;101653.66;2411570;28;45361;-80
2022/08/30 09:25:16;;;;;;;;;11.75;9.25;;;;;22.99;47.53;101657.59;2412593;28;46387;-81
2022/08/30 09:26:34;;;;;;;;;10.25;9.50;;;;;23.03;47.01;101656.41;2412034;28;44768;-81
2022/08/30 09:27:47;;;;;;;;;13.50;11.00;;;;;23.08;46.97;101650.72;2411824;28;48395;-80
2022/08/30 09:28:59;;;;;;;;;9.50;7.00;;;;;23.13;47.13;101662.81;2405115;28;45401;-81
2022/08/30 09:30:26;;;;;;;;;12.75;9.50;;;;;23.20;47.60;101654.31;2411106;28;46495;-80
2022/08/30 09:31:52;;;;;;;;;15.00;11.50;;;;;23.24;46.82;101663.84;2411115;28;45293;-80
2022/08/30 09:33:18;;;;;;;;;6.25;6.25;;;;;23.31;47.02;101662.41;2410261;28;45419;-80
2022/08/30 09:34:31;;;;;;;;;13.25;9.25;;;;;23.34;47.51;101656.84;2411933;28;45293;-80
2022/08/30 09:35:48;;;;;;;;;8.75;7.00;;;;;23.39;46.80;101661.88;2411573;28;47914;-79
2022/08/30 09:36:58;;;;;;;;;8.00;6.50;;;;;23.44;47.26;101666.88;2410883;28;45308;-80
2022/08/30 09:38:16;;;;;;;;;11.25;9.25;;;;;23.50;46.73;101661.13;2412134;28;46770;-80
2022/08/30 09:39:29;;;;;;;;;11.00;10.00;;;;;23.53;46.65;101666.25;2403495;28;45220;-80
2022/08/30 09:40:48;;;;;;;;;9.75;9.75;;;;;23.56;45.78;101670.50;2412206;28;46491;-80
2022/08/30 09:42:25;;;;;;;;;13.50;10.00;;;;;23.58;45.80;101668.59;2411951;28;45268;-80
2022/08/30 09:43:35;;;;;;;;;15.50;9.50;;;;;23.58;45.69;101664.06;2407979;28;45631;-80
2022/08/30 09:44:46;;;;;;;;;11.00;9.00;;;;;23.57;46.13;101662.38;2412260;28;45137;-80
2022/08/30 09:45:59;;;;;;;;;14.00;9.50;;;;;23.61;46.55;101662.97;2411860;28;45460;-79
2022/08/30 09:47:28;;;;;;;;;10.50;10.00;;;;;23.64;45.62;101656.53;2411126;28;45774;-77
2022/08/30 09:48:42;;;;;;;;;9.75;8.50;;;;;23.66;45.12;101663.50;2411003;28;45474;-78
2022/08/30 09:50:04;;;;;;;;;14.50;10.25;;;;;23.68;45.52;101663.41;2410547;28;45483;-78
2022/08/30 09:51:35;;;;;;;;;9.50;9.25;;;;;23.70;45.80;101661.47;2420391;28;47253;-77
2022/08/30 09:52:54;;;;;;;;;13.25;9.75;;;;;23.73;46.04;101666.56;2411292;28;44626;-78
2022/08/30 09:54:47;;;;;;;;;10.50;8.25;;;;;23.79;46.22;101665.25;2410124;28;45773;-79
2022/08/30 09:56:09;;;;;;;;;12.50;9.75;;;;;23.82;45.86;101663.22;2383179;28;44690;-80
2022/08/30 09:57:46;;;;;;;;;6.50;6.25;;;;;23.85;45.77;101661.28;2381459;28;45189;-80
2022/08/30 09:59:10;;;;;;;;;9.75;9.00;;;;;23.91;45.72;101658.09;2410454;28;45554;-80
2022/08/30 10:00:24;;;;;;;;;8.50;4.25;;;;;23.96;45.57;101665.81;2403259;28;48156;-80
2022/08/30 10:01:41;;;;;;;;;13.50;12.25;;;;;23.96;44.59;101658.63;2408549;28;44709;-82
2022/08/30 10:03:19;;;;;;;;;15.00;11.50;;;;;24.00;45.27;101657.41;2402535;28;45467;-82
2022/08/30 10:05:01;;;;;;;;;11.00;7.75;;;;;24.05;44.75;101665.13;2405536;28;45214;-84
2022/08/30 10:06:23;;;;;;;;;8.25;7.75;;;;;24.07;45.04;101662.31;2411851;28;46526;-80
2022/08/30 10:07:44;;;;;;;;;15.00;12.25;;;;;24.11;44.86;101663.78;2408236;28;45359;-81
2022/08/30 10:09:09;;;;;;;;;11.00;10.00;;;;;24.16;44.51;101662.47;2411769;28;45413;-83
2022/08/30 10:10:45;;;;;;;;;13.00;10.75;;;;;24.20;45.13;101665.75;2412270;28;45319;-84
2022/08/30 10:12:11;;;;;;;;;14.25;11.00;;;;;24.23;44.60;101656.59;2411508;28;45546;-82
2022/08/30 10:13:33;;;;;;;;;8.25;7.50;;;;;24.26;45.06;101659.97;2401616;28;45486;-81
2022/08/30 10:15:13;;;;;;;;;8.75;7.25;;;;;24.27;44.73;101661.66;2407784;28;45495;-84
2022/08/30 10:16:36;;;;;;;;;12.50;10.00;;;;;24.32;44.64;101660.47;2411539;28;45352;-86
2022/08/30 10:18:09;;;;;;;;;15.50;12.75;;;;;24.34;44.14;101662.06;2411595;28;45517;-83
2022/08/30 10:19:41;;;;;;;;;11.50;11.50;;;;;24.36;44.51;101664.59;2410420;28;44685;-86
2022/08/30 10:21:15;;;;;;;;;15.75;11.00;;;;;24.38;44.29;101657.28;2412086;28;46530;-86
2022/08/30 10:22:45;;;;;;;;;5.00;5.00;;;;;24.41;44.51;101665.13;2420982;28;44615;-82
2022/08/30 10:24:21;;;;;;;;;9.75;8.25;;;;;24.42;44.33;101658.75;2412143;28;46297;-85
2022/08/30 10:25:38;;;;;;;;;12.50;10.75;;;;;24.47;44.49;101661.94;2406391;28;44686;-82
2022/08/30 10:27:23;;;;;;;;;15.50;11.00;;;;;24.49;44.17;101657.31;2411382;28;47210;-82
2022/08/30 10:28:40;;;;;;;;;15.00;13.00;;;;;24.53;43.98;101662.44;2411825;28;46240;-83
2022/08/30 10:29:58;;;;;;;;;13.25;10.75;;;;;24.55;44.32;101661.34;2412151;28;46515;-87
2022/08/30 10:31:23;;;;;;;;;16.00;11.50;;;;;24.59;44.46;101661.97;2411195;28;45337;-89
2022/08/30 10:32:41;;;;;;;;;12.50;11.00;;;;;24.60;44.59;101652.91;2411184;28;46828;-86
2022/08/30 10:33:57;;;;;;;;;8.50;8.25;;;;;24.64;44.19;101665.16;2412271;28;44670;-85
2022/08/30 10:35:24;;;;;;;;;12.25;11.75;;;;;24.66;44.91;101656.94;2408140;28;46391;-90
2022/08/30 10:36:43;;;;;;;;;15.75;13.00;;;;;24.68;44.09;101663.06;2417171;28;45378;-85
2022/08/30 10:38:20;;;;;;;;;12.25;10.00;;;;;24.72;44.00;101664.50;2414339;28;46839;-84
2022/08/30 10:39:39;;;;;;;;;17.00;11.50;;;;;24.70;43.87;101659.25;2407460;28;45232;-85
2022/08/30 10:41:14;;;;;;;;;10.25;9.25;;;;;24.72;43.70;101661.81;2418274;28;45516;-84
2022/08/30 10:42:30;;;;;;;;;9.00;8.50;;;;;24.73;44.08;101658.16;2413486;28;45341;-84
2022/08/30 10:44:10;;;;;;;;;12.25;10.25;;;;;24.76;44.07;101657.06;2411011;28;45552;-85
2022/08/30 10:45:21;;;;;;;;;12.50;11.50;;;;;24.77;43.57;101658.78;2411562;28;45517;-85
2022/08/30 10:47:05;;;;;;;;;11.00;9.25;;;;;24.82;43.75;101664.63;2418358;28;47027;-83
2022/08/30 10:48:23;;;;;;;;;11.50;11.00;;;;;24.84;43.51;101660.00;2411233;28;44751;-86
2022/08/30 10:50:05;;;;;;;;;13.25;12.50;;;;;24.89;43.62;101668.53;2404109;28;48103;-87
2022/08/30 10:51:40;;;;;;;;;13.00;11.50;;;;;24.93;43.18;101666.47;2408600;28;45253;-86
2022/08/30 10:53:16;;;;;;;;;16.00;11.25;;;;;24.93;43.66;101670.03;2410935;28;47516;-87
2022/08/30 10:54:45;;;;;;;;;15.50;13.00;;;;;24.96;43.95;101663.53;2411366;28;45205;-87
2022/08/30 10:56:05;;;;;;;;;10.75;9.00;;;;;24.97;43.49;101664.38;2420625;28;46659;-87
2022/08/30 10:57:16;;;;;;;;;13.50;10.25;;;;;25.01;43.85;101663.22;2411151;28;45274;-87
2022/08/30 10:58:27;;;;;;;;;12.75;10.50;;;;;25.00;43.60;101667.72;2411367;28;45186;-85
2022/08/30 10:59:53;;;;;;;;;8.75;7.50;;;;;25.04;43.42;101661.09;2411929;28;45235;-87
2022/08/30 11:01:24;;;;;;;;;3.75;3.00;;;;;25.06;43.42;101652.94;2411739;28;45488;-87
2022/08/30 11:02:55;;;;;;;;;9.50;8.00;;;;;25.09;43.58;101655.34;2412092;28;45347;-87
2022/08/30 11:04:24;;;;;;;;;13.25;10.25;;;;;25.12;44.03;101659.63;2410047;28;46949;-87
2022/08/30 11:06:00;;;;;;;;;10.75;8.25;;;;;25.15;43.39;101662.06;2411634;28;45329;-87
2022/08/30 11:07:16;;;;;;;;;17.75;13.00;;;;;25.15;43.48;101656.69;2418808;28;47119;-87
2022/08/30 11:08:54;;;;;;;;;10.00;9.00;;;;;25.20;44.28;101665.25;2417689;28;45434;-86
2022/08/30 11:10:36;;;;;;;;;13.75;12.75;;;;;25.21;43.44;101666.13;2411432;28;45380;-86
2022/08/30 11:12:05;;;;;;;;;12.00;10.00;;;;;25.22;43.32;101663.28;2411305;28;45311;-87
2022/08/30 11:13:28;;;;;;;;;8.25;8.00;;;;;25.22;43.04;101665.13;2411342;28;46241;-83
2022/08/30 11:14:43;;;;;;;;;15.00;11.00;;;;;25.24;44.03;101653.25;2420162;28;45197;-83
2022/08/30 11:16:04;;;;;;;;;14.50;13.00;;;;;25.26;43.75;101666.59;2415615;28;46508;-83
2022/08/30 11:17:29;;;;;;;;;10.25;10.25;;;;;25.29;43.04;101655.56;2411325;28;44706;-83
2022/08/30 11:18:51;;;;;;;;;15.50;13.00;;;;;25.33;43.51;101657.03;2411380;28;46471;-83
2022/08/30 11:20:04;;;;;;;;;17.50;13.25;;;;;25.36;44.45;101659.44;2409168;28;46941;-83
2022/08/30 11:21:30;;;;;;;;;13.00;12.00;;;;;25.37;43.17;101655.78;2411392;28;46636;-83
2022/08/30 11:23:00;;;;;;;;;14.25;12.50;;;;;25.41;42.90;101653.69;2411768;28;45280;-83
2022/08/30 11:24:15;;;;;;;;;11.75;9.00;;;;;25.45;43.01;101654.31;2411171;28;46086;-84
2022/08/30 11:25:50;;;;;;;;;16.75;13.75;;;;;25.49;42.71;101653.91;2411701;28;44690;-84
2022/08/30 11:27:01;;;;;;;;;11.00;9.50;;;;;25.51;42.92;101646.56;2420282;28;47385;-84
2022/08/30 11:28:34;;;;;;;;;14.25;12.75;;;;;25.56;43.00;101653.44;2418230;28;44701;-84
2022/08/30 11:29:45;;;;;;;;;11.75;7.00;;;;;25.58;42.69;101657.66;2419719;28;47015;-84
2022/08/30 11:31:05;;;;;;;;;8.00;7.00;;;;;25.58;42.22;101649.59;2418182;28;45257;-84
2022/08/30 11:32:43;;;;;;;;;10.50;10.00;;;;;25.58;42.51;101652.28;2411577;28;45305;-84
2022/08/30 11:33:58;;;;;;;;;16.50;13.25;;;;;25.61;42.96;101651.19;2410765;28;45497;-84
2022/08/30 11:35:09;;;;;;;;;10.50;10.00;;;;;25.61;42.59;101657.41;2411546;28;45610;-84
2022/08/30 11:36:31;;;;;;;;;16.50;11.50;;;;;25.65;43.05;101652.66;2412989;28;45223;-84
2022/08/30 11:37:43;;;;;;;;;16.25;13.25;;;;;25.67;43.11;101648.00;2413132;28;45402;-84
2022/08/30 11:38:53;;;;;;;;;10.50;9.50;;;;;25.71;42.69;101645.88;2422140;28;45167;-84
2022/08/30 11:40:19;;;;;;;;;13.00;10.75;;;;;25.75;42.95;101650.06;2419356;28;45489;-84
2022/08/30 11:41:40;;;;;;;;;10.25;9.50;;;;;25.76;42.68;101654.44;2407362;28;45348;-84
2022/08/30 11:42:53;;;;;;;;;9.75;9.75;;;;;25.78;42.29;101648.97;2412580;28;46632;-84
2022/08/30 11:44:26;;;;;;;;;13.75;10.25;;;;;25.78;42.07;101647.09;2413553;28;44776;-84
2022/08/30 11:45:45;;;;;;;;;18.25;14.50;;;;;25.77;42.12;101649.94;2419874;28;46932;-84
2022/08/30 11:47:17;;;;;;;;;10.25;9.50;;;;;25.77;42.29;101647.25;2417147;28;45385;-84
2022/08/30 11:48:42;;;;;;;;;14.50;13.50;;;;;25.78;42.15;101657.03;2404223;28;47296;-84
2022/08/30 11:50:12;;;;;;;;;10.50;9.75;;;;;25.78;42.33;101652.47;2413932;28;45213;-84
2022/08/30 11:51:48;;;;;;;;;18.00;15.25;;;;;25.78;41.84;101652.47;2405537;28;45554;-85
2022/08/30 11:53:05;;;;;;;;;20.00;14.50;;;;;25.79;41.76;101648.81;2408892;28;44752;-86
2022/08/30 11:54:33;;;;;;;;;13.75;13.75;;;;;25.80;41.59;101652.38;2411226;28;48381;-84
2022/08/30 11:55:59;;;;;;;;;11.25;11.25;;;;;25.81;42.19;101652.22;2412825;28;45385;-84
2022/08/30 11:57:15;;;;;;;;;10.75;10.25;;;;;25.84;41.92;101648.44;2405514;28;45359;-84
2022/08/30 11:58:48;;;;;;;;;10.50;8.25;;;;;25.85;42.38;101645.59;2409966;28;45309;-84
2022/08/30 11:59:59;;;;;;;;;16.25;12.50;;;;;25.90;41.94;101653.31;2410661;28;46140;-84
2022/08/30 12:01:17;;;;;;;;;11.25;11.25;;;;;25.91;41.57;101656.84;2411656;28;44843;-85
2022/08/30 12:02:58;;;;;;;;;11.75;10.00;;;;;25.94;42.19;101653.88;2409605;28;46976;-84
2022/08/30 12:04:26;;;;;;;;;12.75;11.50;;;;;25.94;42.30;101656.56;2413199;28;45228;-81
2022/08/30 12:05:39;;;;;;;;;12.25;11.75;;;;;25.94;42.34;101654.75;2411796;28;45271;-84